createdAt,value
2024-02-09T08:50:39.568Z,96326.88
2024-02-09T08:53:06.665Z,96361.88
2024-02-09T08:55:33.412Z,96360.06
2024-02-09T08:58:00.170Z,96375.16
2024-02-09T09:00:27.080Z,96361.31
2024-02-09T09:02:54.085Z,96368.44
2024-02-09T09:05:20.893Z,96376.94
2024-02-09T09:07:47.677Z,96346.84
2024-02-09T09:10:14.481Z,96367.72
2024-02-09T09:12:41.320Z,96297.72
2024-02-09T09:15:08.321Z,96359.16
2024-02-09T09:17:35.244Z,96328.84
2024-02-09T09:20:02.405Z,96333.91
2024-02-09T09:22:29.713Z,96250.09
2024-02-09T09:24:56.580Z,96339.56
2024-02-09T09:27:25.189Z,96339.00
2024-02-09T09:29:54.194Z,96332.94
2024-02-09T09:32:21.969Z,96341.50
2024-02-09T09:34:49.903Z,96330.38
2024-02-09T09:37:16.785Z,96338.00
2024-02-09T09:39:43.525Z,96341.91
2024-02-09T09:42:10.679Z,96343.56
2024-02-09T09:44:37.515Z,96341.88
2024-02-09T09:47:07.330Z,96329.06
2024-02-09T09:49:40.114Z,96329.22
2024-02-09T09:52:13.546Z,96304.91
2024-02-09T09:54:40.363Z,96331.13
2024-02-09T09:57:09.750Z,96309.00
2024-02-09T09:59:37.187Z,96296.06
2024-02-09T10:02:04.742Z,96307.16
2024-02-09T10:04:31.659Z,96309.75
2024-02-09T10:06:58.601Z,96298.28
2024-02-09T10:09:25.413Z,96301.81
2024-02-09T10:11:53.200Z,96287.63
2024-02-09T10:14:21.627Z,96053.75
2024-02-09T10:16:49.600Z,96289.97
2024-02-09T10:19:18.516Z,96236.34
2024-02-09T10:21:56.247Z,96260.50
2024-02-09T10:24:25.329Z,96264.69
2024-02-09T10:26:52.297Z,96254.28
2024-02-09T10:29:23.847Z,96239.22
2024-02-09T10:31:53.273Z,96302.53
2024-02-09T10:34:20.157Z,96232.03
2024-02-09T10:36:48.309Z,96241.56
2024-02-09T10:39:15.485Z,96235.03
2024-02-09T10:41:47.445Z,96172.38
2024-02-09T10:44:18.891Z,96163.00
2024-02-09T10:46:46.089Z,96159.38
2024-02-09T10:49:15.891Z,96157.16
2024-02-09T10:51:43.342Z,96180.38
2024-02-09T10:54:27.254Z,96189.22
2024-02-09T10:56:57.222Z,96151.88
2024-02-09T10:59:25.110Z,96174.38
2024-02-09T11:01:52.539Z,96153.69
2024-02-09T11:04:20.056Z,96162.59
2024-02-09T11:06:47.938Z,96166.59
2024-02-09T11:09:15.061Z,96108.44
2024-02-09T11:11:41.884Z,96165.78
2024-02-09T11:14:10.906Z,96163.16
2024-02-09T11:16:44.918Z,96157.38
2024-02-09T11:19:19.323Z,96152.69
2024-02-09T11:21:47.893Z,96158.28
2024-02-09T11:24:19.013Z,96113.44
2024-02-09T11:26:49.973Z,96134.63
2024-02-09T11:29:18.593Z,96083.06
2024-02-09T11:31:51.882Z,96079.41
2024-02-09T11:34:20.454Z,96123.91
2024-02-09T11:36:47.332Z,96106.50
2024-02-09T11:39:14.616Z,96126.31
2024-02-09T11:41:41.343Z,96131.13
2024-02-09T11:44:11.231Z,96106.81
2024-02-09T11:46:38.467Z,96088.97
2024-02-09T11:49:09.054Z,96109.38
2024-02-09T11:51:35.941Z,96084.41
2024-02-09T11:54:04.489Z,96052.78
2024-02-09T11:56:32.665Z,96100.34
2024-02-09T11:59:00.495Z,96062.22
2024-02-09T12:01:36.602Z,96101.72
2024-02-09T12:04:09.991Z,96088.91
2024-02-09T12:06:38.561Z,96099.81
2024-02-09T12:09:05.799Z,96086.84
2024-02-09T12:11:32.914Z,96087.91
2024-02-09T12:13:59.818Z,96067.34
2024-02-09T12:16:26.905Z,96050.03
2024-02-09T12:18:55.254Z,96086.63
2024-02-09T12:21:22.583Z,96094.72
2024-02-09T12:23:54.569Z,96079.34
2024-02-09T12:26:23.815Z,96081.94
2024-02-09T12:28:51.879Z,96000.69
2024-02-09T12:31:20.680Z,96026.41
2024-02-09T12:33:49.680Z,95967.72
2024-02-09T12:36:22.721Z,96000.25
2024-02-09T12:38:57.550Z,96065.38
2024-02-09T12:41:28.176Z,96072.94
2024-02-09T12:44:03.710Z,96061.31
2024-02-09T12:46:32.069Z,95977.94
2024-02-09T12:48:59.277Z,96058.63
2024-02-09T12:51:26.840Z,96065.94
2024-02-09T12:53:57.119Z,96061.34
2024-02-09T12:56:24.536Z,96053.94
2024-02-09T12:58:52.090Z,96020.69
2024-02-09T13:01:20.206Z,96023.50
2024-02-09T13:03:51.785Z,96056.59
2024-02-09T13:06:18.791Z,96022.72
2024-02-09T13:08:45.658Z,96036.44
2024-02-09T13:11:12.717Z,96058.19
2024-02-09T13:13:41.500Z,95954.91
2024-02-09T13:16:13.840Z,96019.75
2024-02-09T13:18:40.967Z,96057.94
2024-02-09T13:21:08.012Z,96054.78
2024-02-09T13:23:36.107Z,96043.06
2024-02-09T13:26:11.562Z,96004.38
2024-02-09T13:28:40.983Z,96021.56
2024-02-09T13:31:12.516Z,96040.31
2024-02-09T13:33:39.758Z,96042.78
2024-02-09T13:36:09.994Z,95598.59
2024-02-09T13:38:39.629Z,96016.50
2024-02-09T13:41:06.548Z,96042.66
2024-02-09T13:43:34.011Z,96029.19
2024-02-09T13:46:01.387Z,96030.09
2024-02-09T13:48:28.536Z,96045.16
2024-02-09T13:50:55.513Z,95974.66
2024-02-09T13:53:22.536Z,96043.09
2024-02-09T13:55:49.694Z,96033.66
2024-02-09T13:58:19.809Z,96037.94
2024-02-09T14:00:54.652Z,95971.88
2024-02-09T14:03:23.081Z,95984.97
2024-02-09T14:05:51.425Z,95970.88
2024-02-09T14:08:24.399Z,95976.03
2024-02-09T14:10:51.478Z,95970.66
2024-02-09T14:13:18.427Z,96041.03
2024-02-09T14:15:50.121Z,96021.81
2024-02-09T14:18:17.141Z,96045.16
2024-02-09T14:20:47.914Z,96042.59
2024-02-09T14:23:14.961Z,95987.28
2024-02-09T14:25:42.062Z,96050.22
2024-02-09T14:28:11.974Z,96045.41
2024-02-09T14:30:40.942Z,95730.88
2024-02-09T14:33:12.019Z,95951.50
2024-02-09T14:35:39.519Z,96037.50
2024-02-09T14:38:06.756Z,95992.97
2024-02-09T14:40:37.730Z,95984.97
2024-02-09T14:43:05.527Z,95994.50
2024-02-09T14:45:35.653Z,95884.19
2024-02-09T14:48:03.023Z,96035.03
2024-02-09T14:50:30.644Z,96021.66
2024-02-09T14:52:58.570Z,95835.50
2024-02-09T14:55:28.755Z,96026.03
2024-02-09T14:58:02.292Z,96025.16
2024-02-09T15:00:34.515Z,96044.75
2024-02-09T15:03:03.078Z,95972.78
2024-02-09T15:05:32.076Z,96034.63
2024-02-09T15:08:00.438Z,96037.41
2024-02-09T15:10:30.896Z,96035.97
2024-02-09T15:13:00.111Z,96058.88
2024-02-09T15:15:31.431Z,96048.53
2024-02-09T15:18:01.247Z,95994.53
2024-02-09T15:20:28.345Z,96045.00
2024-02-09T15:22:56.220Z,96063.94
2024-02-09T15:25:27.870Z,96063.56
2024-02-09T15:27:55.814Z,96064.06
2024-02-09T15:30:22.846Z,96073.88
2024-02-09T15:32:50.256Z,96044.59
2024-02-09T15:35:19.344Z,96018.38
2024-02-09T15:37:46.493Z,96066.06
2024-02-09T15:40:14.257Z,96075.34
2024-02-09T15:42:41.722Z,95997.53
2024-02-09T15:45:09.162Z,96041.97
2024-02-09T15:47:35.891Z,96075.44
2024-02-09T15:50:02.714Z,96061.16
2024-02-09T15:52:30.058Z,95979.81
2024-02-09T15:54:56.906Z,96088.06
2024-02-09T15:57:24.535Z,96080.50
2024-02-09T15:59:51.428Z,96103.75
2024-02-09T16:02:18.227Z,96103.06
2024-02-09T16:04:45.117Z,96078.66
2024-02-09T16:07:11.875Z,96095.53
2024-02-09T16:09:38.602Z,96074.22
2024-02-09T16:12:09.931Z,96104.34
2024-02-09T16:14:40.070Z,96065.81
2024-02-09T16:17:08.195Z,96090.47
2024-02-09T16:19:35.679Z,96128.47
2024-02-09T16:22:02.779Z,96122.31
2024-02-09T16:24:29.550Z,96132.78
2024-02-09T16:26:56.217Z,96129.63
2024-02-09T16:29:22.991Z,96130.56
2024-02-09T16:31:50.273Z,96140.88
2024-02-09T16:34:17.406Z,96132.53
2024-02-09T16:36:44.417Z,96141.75
2024-02-09T16:39:14.432Z,96023.97
2024-02-09T16:41:41.799Z,96139.50
2024-02-09T16:44:09.475Z,96149.84
2024-02-09T16:46:36.757Z,96155.44
2024-02-09T16:49:05.617Z,96143.53
2024-02-09T16:51:32.440Z,96140.78
2024-02-09T16:54:00.668Z,96167.41
2024-02-09T16:56:27.658Z,96100.13
2024-02-09T16:58:54.515Z,96178.13
2024-02-09T17:01:22.779Z,96176.97
2024-02-09T17:03:49.965Z,96131.81
2024-02-09T17:06:16.897Z,96177.75
2024-02-09T17:08:43.741Z,96165.47
2024-02-09T17:11:11.673Z,96115.97
2024-02-09T17:13:38.510Z,96180.94
2024-02-09T17:16:05.816Z,96181.31
2024-02-09T17:18:32.886Z,96195.19
2024-02-09T17:21:00.000Z,96132.59
2024-02-09T17:23:26.658Z,96195.16
2024-02-09T17:25:53.590Z,96199.09
2024-02-09T17:28:20.495Z,96172.56
2024-02-09T17:30:48.579Z,96184.84
2024-02-09T17:33:16.289Z,96211.38
2024-02-09T17:35:43.288Z,96177.69
2024-02-09T17:38:10.540Z,96197.44
2024-02-09T17:40:37.787Z,96213.31
2024-02-09T17:43:04.864Z,96216.41
2024-02-09T17:45:34.053Z,96213.19
2024-02-09T17:48:03.260Z,96137.53
2024-02-09T17:50:30.749Z,96214.84
2024-02-09T17:52:57.591Z,96155.38
2024-02-09T17:55:27.631Z,96184.72
2024-02-09T17:57:55.231Z,96173.66
2024-02-09T18:00:31.136Z,96149.09
2024-02-09T18:02:59.559Z,96010.78
2024-02-09T18:05:27.590Z,96198.97
2024-02-09T18:07:55.237Z,96200.97
2024-02-09T18:10:22.080Z,96188.72
2024-02-09T18:12:49.738Z,96191.06
2024-02-09T18:15:16.718Z,96198.91
2024-02-09T18:17:43.522Z,96202.84
2024-02-09T18:20:11.499Z,96192.19
2024-02-09T18:22:38.389Z,96195.69
2024-02-09T18:25:06.023Z,96106.09
2024-02-09T18:27:33.219Z,96200.88
2024-02-09T18:30:00.778Z,96148.94
2024-02-09T18:32:29.109Z,96253.50
2024-02-09T18:34:56.640Z,96130.66
2024-02-09T18:37:23.681Z,96198.88
2024-02-09T18:39:52.041Z,96180.66
2024-02-09T18:42:19.000Z,96199.66
2024-02-09T18:44:46.008Z,96197.31
2024-02-09T18:47:14.359Z,96203.25
2024-02-09T18:49:41.656Z,96157.59
2024-02-09T18:52:10.087Z,96216.63
2024-02-09T18:54:43.906Z,96134.59
2024-02-09T18:57:10.793Z,96130.59
2024-02-09T18:59:37.715Z,96199.50
2024-02-09T19:02:07.440Z,96028.13
2024-02-09T19:04:35.616Z,96222.00
2024-02-09T19:07:02.488Z,96221.66
2024-02-09T19:09:31.316Z,96205.75
2024-02-09T19:11:58.896Z,96225.16
2024-02-09T19:14:26.282Z,96225.53
2024-02-09T19:16:53.671Z,96223.16
2024-02-09T19:19:20.809Z,96226.28
2024-02-09T19:21:51.014Z,96241.91
2024-02-09T19:24:19.074Z,96203.13
2024-02-09T19:26:46.164Z,96248.41
2024-02-09T19:29:13.190Z,96264.25
2024-02-09T19:31:40.222Z,96266.13
2024-02-09T19:34:09.655Z,96251.50
2024-02-09T19:36:36.865Z,96263.38
2024-02-09T19:39:07.067Z,96266.13
2024-02-09T19:41:35.153Z,96258.97
2024-02-09T19:44:03.090Z,96257.00
2024-02-09T19:46:32.500Z,96256.97
2024-02-09T19:49:13.106Z,96251.34
2024-02-09T19:51:43.793Z,96254.47
2024-02-09T19:54:11.905Z,96254.03
2024-02-09T19:56:38.830Z,96199.63
2024-02-09T19:59:07.828Z,96254.75
2024-02-09T20:01:34.818Z,96213.03
2024-02-09T20:04:11.336Z,96249.44
2024-02-09T20:06:38.272Z,96237.75
2024-02-09T20:09:05.720Z,96260.00
2024-02-09T20:11:32.938Z,96209.91
2024-02-09T20:14:01.703Z,96211.44
2024-02-09T20:16:31.835Z,96163.13
2024-02-09T20:19:02.175Z,96250.47
2024-02-09T20:21:31.030Z,96230.13
2024-02-09T20:24:02.916Z,96258.00
2024-02-09T20:26:30.230Z,96244.06
2024-02-09T20:29:00.779Z,96254.47
2024-02-09T20:31:28.475Z,96275.09
2024-02-09T20:33:58.796Z,96198.44
2024-02-09T20:36:28.278Z,96248.84
2024-02-09T20:38:57.088Z,96244.16
2024-02-09T20:41:24.121Z,96177.31
2024-02-09T20:43:51.706Z,96194.03
2024-02-09T20:46:20.044Z,96191.25
2024-02-09T20:48:47.094Z,96228.16
2024-02-09T20:51:33.941Z,96231.63
2024-02-09T20:54:03.302Z,95884.25
2024-02-09T20:56:30.181Z,96246.41
2024-02-09T20:58:59.300Z,96245.97
2024-02-09T21:01:27.766Z,96235.19
2024-02-09T21:03:56.783Z,96207.38
2024-02-09T21:06:26.440Z,96238.38
2024-02-09T21:08:53.439Z,96179.69
2024-02-09T21:11:21.236Z,96188.91
2024-02-09T21:13:48.229Z,96198.66
2024-02-09T21:16:15.244Z,96185.47
2024-02-09T21:18:42.276Z,96242.56
2024-02-09T21:21:09.207Z,96251.66
2024-02-09T21:23:36.184Z,96247.81
2024-02-09T21:26:04.787Z,96207.41
2024-02-09T21:28:32.727Z,96244.16
2024-02-09T21:30:59.564Z,96237.03
2024-02-09T21:33:26.715Z,96247.47
2024-02-09T21:35:57.601Z,96249.25
2024-02-09T21:38:26.452Z,96260.16
2024-02-09T21:40:53.553Z,96212.50
2024-02-09T21:43:25.797Z,95860.72
2024-02-09T21:45:53.760Z,96213.41
2024-02-09T21:48:21.805Z,96249.88
2024-02-09T21:50:48.882Z,96164.19
2024-02-09T21:53:17.347Z,96246.13
2024-02-09T21:55:50.911Z,96218.97
2024-02-09T21:58:17.845Z,96242.41
2024-02-09T22:00:45.270Z,96252.66
2024-02-09T22:03:12.518Z,96180.59
2024-02-09T22:05:39.671Z,96111.22
2024-02-09T22:08:06.761Z,96202.00
2024-02-09T22:10:33.629Z,96236.78
2024-02-09T22:13:01.716Z,96235.13
2024-02-09T22:15:34.295Z,96166.47
2024-02-09T22:18:02.307Z,96234.03
2024-02-09T22:20:29.306Z,96179.47
2024-02-09T22:22:56.189Z,96258.16
2024-02-09T22:25:23.389Z,96304.34
2024-02-09T22:27:54.013Z,96186.72
2024-02-09T22:30:21.052Z,96249.25
2024-02-09T22:32:47.964Z,96243.00
2024-02-09T22:35:15.887Z,96242.78
2024-02-09T22:37:43.061Z,96242.41
2024-02-09T22:40:18.737Z,96239.31
2024-02-09T22:42:47.380Z,96070.00
2024-02-09T22:45:15.896Z,96244.47
2024-02-09T22:47:43.190Z,96165.44
2024-02-09T22:50:12.853Z,96250.28
2024-02-09T22:52:40.405Z,96206.13
2024-02-09T22:55:08.365Z,96237.00
2024-02-09T22:57:35.425Z,96245.03
2024-02-09T23:00:09.326Z,96187.66
2024-02-09T23:02:36.041Z,96186.63
2024-02-09T23:05:02.974Z,96232.69
2024-02-09T23:07:33.322Z,96199.78
2024-02-09T23:10:01.863Z,96226.81
2024-02-09T23:12:28.602Z,96143.53
2024-02-09T23:14:57.699Z,96239.84
2024-02-09T23:17:26.703Z,96124.50
2024-02-09T23:19:54.403Z,96145.00
2024-02-09T23:22:21.334Z,96239.53
2024-02-09T23:24:51.095Z,96192.59
2024-02-09T23:27:17.879Z,96238.06
2024-02-09T23:29:44.554Z,96222.47
2024-02-09T23:32:12.068Z,96188.09
2024-02-09T23:34:40.748Z,96242.00
2024-02-09T23:37:07.588Z,95611.75
2024-02-09T23:39:34.309Z,96104.13
2024-02-09T23:42:01.171Z,96248.00
2024-02-09T23:44:29.668Z,96207.50
2024-02-09T23:46:57.274Z,96170.63
2024-02-09T23:49:24.299Z,96247.75
2024-02-09T23:51:54.299Z,96254.56
2024-02-09T23:54:21.033Z,96270.94
2024-02-09T23:56:49.311Z,96223.34
2024-02-09T23:59:17.207Z,96195.13
